sensor_id;sensor_type;location;lat;lon;timestamp;P1;durP1;ratioP1;P2;durP2;ratioP2
17937;SDS011;16051;53.024;8.630;2022-08-25T00:00:49;3.20;;;2.83;;
17937;SDS011;16051;53.024;8.630;2022-08-25T00:04:52;3.03;;;2.73;;
17937;SDS011;16051;53.024;8.630;2022-08-25T00:08:54;3.37;;;2.70;;
17937;SDS011;16051;53.024;8.630;2022-08-25T00:12:58;2.80;;;2.60;;
17937;SDS011;16051;53.024;8.630;2022-08-25T00:17:03;2.93;;;2.70;;
17937;SDS011;16051;53.024;8.630;2022-08-25T00:21:07;4.27;;;2.90;;
17937;SDS011;16051;53.024;8.630;2022-08-25T00:25:10;3.20;;;2.50;;
17937;SDS011;16051;53.024;8.630;2022-08-25T00:29:12;3.87;;;2.47;;
17937;SDS011;16051;53.024;8.630;2022-08-25T00:33:16;3.17;;;2.87;;
17937;SDS011;16051;53.024;8.630;2022-08-25T00:37:18;4.50;;;2.67;;
17937;SDS011;16051;53.024;8.630;2022-08-25T00:41:22;3.03;;;2.73;;
17937;SDS011;16051;53.024;8.630;2022-08-25T00:45:26;3.10;;;2.80;;
17937;SDS011;16051;53.024;8.630;2022-08-25T00:49:31;3.23;;;2.70;;
17937;SDS011;16051;53.024;8.630;2022-08-25T00:53:37;3.60;;;2.77;;
17937;SDS011;16051;53.024;8.630;2022-08-25T00:57:42;3.10;;;2.83;;
17937;SDS011;16051;53.024;8.630;2022-08-25T01:01:50;3.00;;;2.57;;
17937;SDS011;16051;53.024;8.630;2022-08-25T01:05:55;3.30;;;2.70;;
17937;SDS011;16051;53.024;8.630;2022-08-25T01:09:58;3.50;;;3.13;;
17937;SDS011;16051;53.024;8.630;2022-08-25T01:14:01;3.43;;;2.80;;
17937;SDS011;16051;53.024;8.630;2022-08-25T01:18:05;3.10;;;2.90;;
17937;SDS011;16051;53.024;8.630;2022-08-25T01:22:09;3.07;;;2.73;;
17937;SDS011;16051;53.024;8.630;2022-08-25T01:26:13;2.93;;;2.37;;
17937;SDS011;16051;53.024;8.630;2022-08-25T01:30:19;2.90;;;2.60;;
17937;SDS011;16051;53.024;8.630;2022-08-25T01:34:23;4.17;;;2.90;;
17937;SDS011;16051;53.024;8.630;2022-08-25T01:38:41;3.47;;;2.93;;
17937;SDS011;16051;53.024;8.630;2022-08-25T01:43:05;2.93;;;2.70;;
17937;SDS011;16051;53.024;8.630;2022-08-25T01:52:20;3.30;;;3.00;;
17937;SDS011;16051;53.024;8.630;2022-08-25T01:56:30;3.00;;;2.70;;
17937;SDS011;16051;53.024;8.630;2022-08-25T02:00:32;2.60;;;2.40;;
17937;SDS011;16051;53.024;8.630;2022-08-25T02:04:34;3.93;;;3.17;;
17937;SDS011;16051;53.024;8.630;2022-08-25T02:08:37;3.47;;;3.17;;
17937;SDS011;16051;53.024;8.630;2022-08-25T02:12:40;4.57;;;3.60;;
17937;SDS011;16051;53.024;8.630;2022-08-25T02:21:43;5.97;;;3.43;;
17937;SDS011;16051;53.024;8.630;2022-08-25T02:25:46;5.87;;;3.50;;
17937;SDS011;16051;53.024;8.630;2022-08-25T02:29:55;5.57;;;3.40;;
17937;SDS011;16051;53.024;8.630;2022-08-25T02:33:57;6.40;;;4.00;;
17937;SDS011;16051;53.024;8.630;2022-08-25T02:38:01;3.90;;;3.50;;
17937;SDS011;16051;53.024;8.630;2022-08-25T02:42:04;5.00;;;3.73;;
17937;SDS011;16051;53.024;8.630;2022-08-25T02:46:08;4.20;;;3.80;;
17937;SDS011;16051;53.024;8.630;2022-08-25T02:50:12;4.00;;;3.60;;
17937;SDS011;16051;53.024;8.630;2022-08-25T02:54:14;5.07;;;3.87;;
17937;SDS011;16051;53.024;8.630;2022-08-25T02:58:21;4.50;;;4.10;;
17937;SDS011;16051;53.024;8.630;2022-08-25T03:02:25;5.40;;;4.90;;
17937;SDS011;16051;53.024;8.630;2022-08-25T03:06:27;3.87;;;3.50;;
17937;SDS011;16051;53.024;8.630;2022-08-25T03:10:30;4.80;;;4.40;;
17937;SDS011;16051;53.024;8.630;2022-08-25T03:14:33;6.23;;;4.30;;
17937;SDS011;16051;53.024;8.630;2022-08-25T03:18:37;5.07;;;4.03;;
17937;SDS011;16051;53.024;8.630;2022-08-25T03:22:41;4.77;;;4.37;;
17937;SDS011;16051;53.024;8.630;2022-08-25T03:30:59;4.73;;;4.10;;
17937;SDS011;16051;53.024;8.630;2022-08-25T03:35:04;5.17;;;4.40;;
17937;SDS011;16051;53.024;8.630;2022-08-25T03:39:07;4.90;;;4.20;;
17937;SDS011;16051;53.024;8.630;2022-08-25T03:43:09;5.50;;;4.53;;
17937;SDS011;16051;53.024;8.630;2022-08-25T03:47:12;5.07;;;4.50;;
17937;SDS011;16051;53.024;8.630;2022-08-25T03:51:19;6.60;;;5.03;;
17937;SDS011;16051;53.024;8.630;2022-08-25T03:55:23;5.17;;;4.67;;
17937;SDS011;16051;53.024;8.630;2022-08-25T03:59:30;7.80;;;6.30;;
17937;SDS011;16051;53.024;8.630;2022-08-25T04:03:34;8.03;;;6.00;;
17937;SDS011;16051;53.024;8.630;2022-08-25T04:07:38;6.20;;;5.53;;
17937;SDS011;16051;53.024;8.630;2022-08-25T04:11:41;6.33;;;5.57;;
17937;SDS011;16051;53.024;8.630;2022-08-25T04:15:43;7.00;;;5.97;;
17937;SDS011;16051;53.024;8.630;2022-08-25T04:19:45;7.87;;;5.30;;
17937;SDS011;16051;53.024;8.630;2022-08-25T04:23:49;6.57;;;5.90;;
17937;SDS011;16051;53.024;8.630;2022-08-25T04:28:02;6.87;;;6.07;;
17937;SDS011;16051;53.024;8.630;2022-08-25T04:32:04;7.03;;;6.30;;
17937;SDS011;16051;53.024;8.630;2022-08-25T04:36:07;7.37;;;6.17;;
17937;SDS011;16051;53.024;8.630;2022-08-25T04:40:13;7.40;;;6.70;;
17937;SDS011;16051;53.024;8.630;2022-08-25T04:44:15;10.33;;;7.37;;
17937;SDS011;16051;53.024;8.630;2022-08-25T04:48:26;6.57;;;5.97;;
17937;SDS011;16051;53.024;8.630;2022-08-25T04:52:28;7.40;;;6.67;;
17937;SDS011;16051;53.024;8.630;2022-08-25T04:56:31;7.33;;;6.63;;
17937;SDS011;16051;53.024;8.630;2022-08-25T05:00:35;8.37;;;7.40;;
17937;SDS011;16051;53.024;8.630;2022-08-25T05:04:37;8.17;;;7.00;;
17937;SDS011;16051;53.024;8.630;2022-08-25T05:08:39;8.43;;;7.63;;
17937;SDS011;16051;53.024;8.630;2022-08-25T05:12:43;8.90;;;7.93;;
17937;SDS011;16051;53.024;8.630;2022-08-25T05:16:54;9.97;;;8.87;;
17937;SDS011;16051;53.024;8.630;2022-08-25T05:21:00;9.93;;;8.83;;
17937;SDS011;16051;53.024;8.630;2022-08-25T05:25:05;11.80;;;8.73;;
17937;SDS011;16051;53.024;8.630;2022-08-25T05:29:10;10.43;;;9.43;;
17937;SDS011;16051;53.024;8.630;2022-08-25T05:33:12;11.37;;;9.67;;
17937;SDS011;16051;53.024;8.630;2022-08-25T05:37:15;10.97;;;9.30;;
17937;SDS011;16051;53.024;8.630;2022-08-25T05:41:18;10.40;;;9.27;;
17937;SDS011;16051;53.024;8.630;2022-08-25T05:45:26;10.93;;;9.93;;
17937;SDS011;16051;53.024;8.630;2022-08-25T05:49:28;12.27;;;11.07;;
17937;SDS011;16051;53.024;8.630;2022-08-25T05:53:31;13.87;;;11.83;;
17937;SDS011;16051;53.024;8.630;2022-08-25T05:57:34;12.23;;;9.83;;
17937;SDS011;16051;53.024;8.630;2022-08-25T06:01:55;12.13;;;10.80;;
17937;SDS011;16051;53.024;8.630;2022-08-25T06:06:15;11.27;;;9.70;;
17937;SDS011;16051;53.024;8.630;2022-08-25T06:10:17;11.33;;;10.13;;
17937;SDS011;16051;53.024;8.630;2022-08-25T06:14:35;11.20;;;10.00;;
17937;SDS011;16051;53.024;8.630;2022-08-25T06:18:38;10.07;;;8.97;;
17937;SDS011;16051;53.024;8.630;2022-08-25T06:22:40;14.97;;;9.97;;
17937;SDS011;16051;53.024;8.630;2022-08-25T06:26:43;12.67;;;10.53;;
17937;SDS011;16051;53.024;8.630;2022-08-25T06:31:01;15.30;;;12.03;;
17937;SDS011;16051;53.024;8.630;2022-08-25T06:35:06;18.03;;;12.43;;
17937;SDS011;16051;53.024;8.630;2022-08-25T06:39:12;14.23;;;12.07;;
17937;SDS011;16051;53.024;8.630;2022-08-25T06:43:15;14.07;;;12.03;;
17937;SDS011;16051;53.024;8.630;2022-08-25T06:47:36;13.80;;;11.60;;
17937;SDS011;16051;53.024;8.630;2022-08-25T06:51:40;14.43;;;11.70;;
17937;SDS011;16051;53.024;8.630;2022-08-25T06:55:43;16.57;;;12.20;;
17937;SDS011;16051;53.024;8.630;2022-08-25T06:59:46;15.40;;;10.80;;
17937;SDS011;16051;53.024;8.630;2022-08-25T07:03:48;11.67;;;10.30;;
17937;SDS011;16051;53.024;8.630;2022-08-25T07:07:52;13.23;;;10.83;;
17937;SDS011;16051;53.024;8.630;2022-08-25T07:11:55;15.17;;;11.60;;
17937;SDS011;16051;53.024;8.630;2022-08-25T07:15:57;14.30;;;12.33;;
17937;SDS011;16051;53.024;8.630;2022-08-25T07:19:59;12.40;;;11.10;;
17937;SDS011;16051;53.024;8.630;2022-08-25T07:24:04;14.63;;;12.00;;
17937;SDS011;16051;53.024;8.630;2022-08-25T07:28:09;13.03;;;11.00;;
17937;SDS011;16051;53.024;8.630;2022-08-25T07:32:11;12.93;;;11.23;;
17937;SDS011;16051;53.024;8.630;2022-08-25T07:36:13;14.30;;;11.90;;
17937;SDS011;16051;53.024;8.630;2022-08-25T07:40:18;17.47;;;11.17;;
17937;SDS011;16051;53.024;8.630;2022-08-25T07:44:23;10.67;;;9.57;;
17937;SDS011;16051;53.024;8.630;2022-08-25T07:48:26;11.30;;;10.10;;
17937;SDS011;16051;53.024;8.630;2022-08-25T07:52:28;10.00;;;9.00;;
17937;SDS011;16051;53.024;8.630;2022-08-25T07:56:32;10.70;;;9.70;;
17937;SDS011;16051;53.024;8.630;2022-08-25T08:00:34;12.70;;;10.50;;
17937;SDS011;16051;53.024;8.630;2022-08-25T08:04:40;12.93;;;10.43;;
17937;SDS011;16051;53.024;8.630;2022-08-25T08:08:43;11.10;;;9.90;;
17937;SDS011;16051;53.024;8.630;2022-08-25T08:12:52;10.73;;;9.63;;
17937;SDS011;16051;53.024;8.630;2022-08-25T08:16:54;10.87;;;9.77;;
17937;SDS011;16051;53.024;8.630;2022-08-25T08:21:13;13.07;;;9.37;;
17937;SDS011;16051;53.024;8.630;2022-08-25T08:25:20;11.07;;;9.87;;
17937;SDS011;16051;53.024;8.630;2022-08-25T08:29:23;9.57;;;8.60;;
17937;SDS011;16051;53.024;8.630;2022-08-25T08:33:28;8.97;;;8.20;;
17937;SDS011;16051;53.024;8.630;2022-08-25T08:37:31;14.27;;;9.77;;
17937;SDS011;16051;53.024;8.630;2022-08-25T08:46:19;12.20;;;9.33;;
17937;SDS011;16051;53.024;8.630;2022-08-25T08:50:27;9.63;;;8.70;;
17937;SDS011;16051;53.024;8.630;2022-08-25T08:54:37;11.83;;;8.70;;
17937;SDS011;16051;53.024;8.630;2022-08-25T08:58:43;9.70;;;7.80;;
17937;SDS011;16051;53.024;8.630;2022-08-25T09:02:53;9.33;;;7.93;;
17937;SDS011;16051;53.024;8.630;2022-08-25T09:07:03;11.57;;;8.53;;
17937;SDS011;16051;53.024;8.630;2022-08-25T09:11:17;8.60;;;7.80;;
17937;SDS011;16051;53.024;8.630;2022-08-25T09:15:32;9.10;;;7.80;;
17937;SDS011;16051;53.024;8.630;2022-08-25T09:24:42;11.40;;;7.73;;
17937;SDS011;16051;53.024;8.630;2022-08-25T09:29:02;10.27;;;7.33;;
17937;SDS011;16051;53.024;8.630;2022-08-25T09:33:09;8.10;;;6.70;;
17937;SDS011;16051;53.024;8.630;2022-08-25T09:37:20;15.13;;;7.23;;
17937;SDS011;16051;53.024;8.630;2022-08-25T09:50:00;8.70;;;6.30;;
17937;SDS011;16051;53.024;8.630;2022-08-25T09:54:15;8.13;;;5.97;;
17937;SDS011;16051;53.024;8.630;2022-08-25T09:58:23;7.40;;;6.20;;
17937;SDS011;16051;53.024;8.630;2022-08-25T10:02:27;7.95;;;6.30;;
17937;SDS011;16051;53.024;8.630;2022-08-25T10:06:33;9.65;;;5.40;;
17937;SDS011;16051;53.024;8.630;2022-08-25T10:10:45;11.80;;;5.90;;
17937;SDS011;16051;53.024;8.630;2022-08-25T10:14:56;6.60;;;4.90;;
17937;SDS011;16051;53.024;8.630;2022-08-25T10:18:59;6.43;;;5.25;;
17937;SDS011;16051;53.024;8.630;2022-08-25T10:23:21;8.82;;;5.72;;
17937;SDS011;16051;53.024;8.630;2022-08-25T10:27:31;9.38;;;5.40;;
17937;SDS011;16051;53.024;8.630;2022-08-25T10:31:45;8.68;;;5.28;;
17937;SDS011;16051;53.024;8.630;2022-08-25T10:35:56;6.30;;;5.00;;
17937;SDS011;16051;53.024;8.630;2022-08-25T10:40:07;7.35;;;5.15;;
17937;SDS011;16051;53.024;8.630;2022-08-25T10:44:23;5.32;;;4.82;;
17937;SDS011;16051;53.024;8.630;2022-08-25T10:48:57;7.55;;;5.68;;
17937;SDS011;16051;53.024;8.630;2022-08-25T10:53:10;6.90;;;5.38;;
17937;SDS011;16051;53.024;8.630;2022-08-25T10:57:28;6.32;;;4.80;;
17937;SDS011;16051;53.024;8.630;2022-08-25T11:01:46;6.93;;;5.13;;
17937;SDS011;16051;53.024;8.630;2022-08-25T11:06:08;6.32;;;5.68;;
17937;SDS011;16051;53.024;8.630;2022-08-25T11:10:18;10.88;;;6.95;;
17937;SDS011;16051;53.024;8.630;2022-08-25T11:14:28;6.75;;;6.07;;
17937;SDS011;16051;53.024;8.630;2022-08-25T11:18:38;7.03;;;5.25;;
17937;SDS011;16051;53.024;8.630;2022-08-25T11:22:53;6.60;;;5.90;;
17937;SDS011;16051;53.024;8.630;2022-08-25T11:27:08;7.45;;;6.20;;
17937;SDS011;16051;53.024;8.630;2022-08-25T11:31:17;6.85;;;5.78;;
17937;SDS011;16051;53.024;8.630;2022-08-25T11:35:26;11.48;;;5.60;;
17937;SDS011;16051;53.024;8.630;2022-08-25T11:39:50;5.95;;;5.45;;
17937;SDS011;16051;53.024;8.630;2022-08-25T11:44:29;6.50;;;5.65;;
17937;SDS011;16051;53.024;8.630;2022-08-25T11:48:46;6.88;;;5.50;;
17937;SDS011;16051;53.024;8.630;2022-08-25T11:53:20;6.30;;;5.80;;
17937;SDS011;16051;53.024;8.630;2022-08-25T11:57:28;6.00;;;5.50;;
17937;SDS011;16051;53.024;8.630;2022-08-25T12:06:17;8.13;;;5.30;;
17937;SDS011;16051;53.024;8.630;2022-08-25T12:10:51;6.13;;;5.60;;
17937;SDS011;16051;53.024;8.630;2022-08-25T12:15:12;9.05;;;5.97;;
17937;SDS011;16051;53.024;8.630;2022-08-25T12:19:25;10.15;;;5.53;;
17937;SDS011;16051;53.024;8.630;2022-08-25T12:37:10;6.05;;;5.47;;
17937;SDS011;16051;53.024;8.630;2022-08-25T12:41:17;6.18;;;5.53;;
17937;SDS011;16051;53.024;8.630;2022-08-25T12:45:34;7.82;;;5.45;;
17937;SDS011;16051;53.024;8.630;2022-08-25T12:49:46;6.95;;;4.53;;
17937;SDS011;16051;53.024;8.630;2022-08-25T12:53:49;5.05;;;4.55;;
17937;SDS011;16051;53.024;8.630;2022-08-25T13:02:14;7.60;;;4.40;;
17937;SDS011;16051;53.024;8.630;2022-08-25T13:06:42;6.88;;;4.93;;
17937;SDS011;16051;53.024;8.630;2022-08-25T13:11:17;7.53;;;5.00;;
17937;SDS011;16051;53.024;8.630;2022-08-25T13:15:37;6.68;;;4.63;;
17937;SDS011;16051;53.024;8.630;2022-08-25T13:19:43;5.60;;;5.07;;
17937;SDS011;16051;53.024;8.630;2022-08-25T13:23:46;7.18;;;4.82;;
17937;SDS011;16051;53.024;8.630;2022-08-25T13:27:53;6.85;;;4.65;;
17937;SDS011;16051;53.024;8.630;2022-08-25T13:32:01;7.72;;;4.22;;
17937;SDS011;16051;53.024;8.630;2022-08-25T13:36:14;4.80;;;4.40;;
17937;SDS011;16051;53.024;8.630;2022-08-25T13:40:41;6.22;;;4.30;;
17937;SDS011;16051;53.024;8.630;2022-08-25T13:44:44;5.47;;;4.13;;
17937;SDS011;16051;53.024;8.630;2022-08-25T13:49:00;5.40;;;4.57;;
17937;SDS011;16051;53.024;8.630;2022-08-25T13:53:12;6.38;;;4.13;;
17937;SDS011;16051;53.024;8.630;2022-08-25T13:57:22;5.20;;;4.22;;
17937;SDS011;16051;53.024;8.630;2022-08-25T14:01:45;6.65;;;4.68;;
17937;SDS011;16051;53.024;8.630;2022-08-25T14:05:50;7.85;;;4.45;;
17937;SDS011;16051;53.024;8.630;2022-08-25T14:10:31;5.50;;;5.00;;
17937;SDS011;16051;53.024;8.630;2022-08-25T14:14:40;7.20;;;4.72;;
17937;SDS011;16051;53.024;8.630;2022-08-25T14:23:06;7.30;;;4.88;;
17937;SDS011;16051;53.024;8.630;2022-08-25T14:27:18;5.05;;;4.53;;
17937;SDS011;16051;53.024;8.630;2022-08-25T14:31:25;6.07;;;4.60;;
17937;SDS011;16051;53.024;8.630;2022-08-25T14:35:30;5.68;;;5.15;;
17937;SDS011;16051;53.024;8.630;2022-08-25T14:39:33;5.60;;;5.10;;
17937;SDS011;16051;53.024;8.630;2022-08-25T14:43:37;9.15;;;5.75;;
17937;SDS011;16051;53.024;8.630;2022-08-25T14:47:39;5.55;;;4.57;;
17937;SDS011;16051;53.024;8.630;2022-08-25T14:51:44;6.20;;;5.05;;
17937;SDS011;16051;53.024;8.630;2022-08-25T14:55:48;5.78;;;4.63;;
17937;SDS011;16051;53.024;8.630;2022-08-25T14:59:54;6.88;;;4.53;;
17937;SDS011;16051;53.024;8.630;2022-08-25T15:03:57;5.25;;;4.53;;
17937;SDS011;16051;53.024;8.630;2022-08-25T15:08:05;4.93;;;4.53;;
17937;SDS011;16051;53.024;8.630;2022-08-25T15:12:29;6.47;;;5.05;;
17937;SDS011;16051;53.024;8.630;2022-08-25T15:16:35;8.73;;;4.93;;
17937;SDS011;16051;53.024;8.630;2022-08-25T15:20:42;5.90;;;4.93;;
17937;SDS011;16051;53.024;8.630;2022-08-25T15:29:19;9.20;;;5.53;;
17937;SDS011;16051;53.024;8.630;2022-08-25T15:33:23;4.93;;;4.43;;
17937;SDS011;16051;53.024;8.630;2022-08-25T15:37:25;5.45;;;4.95;;
17937;SDS011;16051;53.024;8.630;2022-08-25T15:41:28;6.38;;;5.10;;
17937;SDS011;16051;53.024;8.630;2022-08-25T15:49:58;5.75;;;5.15;;
17937;SDS011;16051;53.024;8.630;2022-08-25T15:54:12;7.40;;;5.00;;
17937;SDS011;16051;53.024;8.630;2022-08-25T15:58:15;7.93;;;5.20;;
17937;SDS011;16051;53.024;8.630;2022-08-25T16:02:20;8.00;;;5.28;;
17937;SDS011;16051;53.024;8.630;2022-08-25T16:06:24;10.07;;;5.30;;
17937;SDS011;16051;53.024;8.630;2022-08-25T16:10:27;5.18;;;4.68;;
17937;SDS011;16051;53.024;8.630;2022-08-25T16:14:41;9.18;;;5.30;;
17937;SDS011;16051;53.024;8.630;2022-08-25T16:18:43;7.20;;;4.68;;
17937;SDS011;16051;53.024;8.630;2022-08-25T16:22:55;8.10;;;5.05;;
17937;SDS011;16051;53.024;8.630;2022-08-25T16:26:59;7.70;;;5.10;;
17937;SDS011;16051;53.024;8.630;2022-08-25T16:31:14;9.27;;;5.45;;
17937;SDS011;16051;53.024;8.630;2022-08-25T16:35:17;9.48;;;5.45;;
17937;SDS011;16051;53.024;8.630;2022-08-25T16:39:21;7.85;;;4.53;;
17937;SDS011;16051;53.024;8.630;2022-08-25T16:43:24;6.47;;;5.30;;
17937;SDS011;16051;53.024;8.630;2022-08-25T16:47:26;8.10;;;5.20;;
17937;SDS011;16051;53.024;8.630;2022-08-25T16:56:00;11.23;;;5.25;;
17937;SDS011;16051;53.024;8.630;2022-08-25T17:00:02;7.72;;;5.22;;
17937;SDS011;16051;53.024;8.630;2022-08-25T17:04:08;7.10;;;5.25;;
17937;SDS011;16051;53.024;8.630;2022-08-25T17:08:11;9.40;;;5.13;;
17937;SDS011;16051;53.024;8.630;2022-08-25T17:12:32;7.97;;;4.80;;
17937;SDS011;16051;53.024;8.630;2022-08-25T17:16:34;5.28;;;4.78;;
17937;SDS011;16051;53.024;8.630;2022-08-25T17:20:37;9.65;;;4.75;;
17937;SDS011;16051;53.024;8.630;2022-08-25T17:24:40;6.75;;;4.78;;
17937;SDS011;16051;53.024;8.630;2022-08-25T17:29:03;5.05;;;4.60;;
17937;SDS011;16051;53.024;8.630;2022-08-25T17:33:06;8.00;;;4.93;;
17937;SDS011;16051;53.024;8.630;2022-08-25T17:37:08;9.15;;;5.43;;
17937;SDS011;16051;53.024;8.630;2022-08-25T17:41:15;8.02;;;4.95;;
17937;SDS011;16051;53.024;8.630;2022-08-25T17:45:28;10.70;;;5.13;;
17937;SDS011;16051;53.024;8.630;2022-08-25T17:49:34;7.65;;;5.50;;
17937;SDS011;16051;53.024;8.630;2022-08-25T17:53:36;6.68;;;4.97;;
17937;SDS011;16051;53.024;8.630;2022-08-25T17:57:39;8.63;;;5.03;;
17937;SDS011;16051;53.024;8.630;2022-08-25T18:01:43;7.15;;;5.03;;
17937;SDS011;16051;53.024;8.630;2022-08-25T18:05:45;8.23;;;4.95;;
17937;SDS011;16051;53.024;8.630;2022-08-25T18:09:48;7.65;;;4.93;;
17937;SDS011;16051;53.024;8.630;2022-08-25T18:13:53;7.45;;;5.13;;
17937;SDS011;16051;53.024;8.630;2022-08-25T18:17:57;7.85;;;5.05;;
17937;SDS011;16051;53.024;8.630;2022-08-25T18:22:00;9.82;;;4.93;;
17937;SDS011;16051;53.024;8.630;2022-08-25T18:26:05;5.40;;;4.90;;
17937;SDS011;16051;53.024;8.630;2022-08-25T18:34:47;5.40;;;4.57;;
17937;SDS011;16051;53.024;8.630;2022-08-25T18:38:49;6.95;;;4.78;;
17937;SDS011;16051;53.024;8.630;2022-08-25T18:43:13;7.22;;;5.10;;
17937;SDS011;16051;53.024;8.630;2022-08-25T18:47:15;8.20;;;4.68;;
17937;SDS011;16051;53.024;8.630;2022-08-25T18:51:19;7.25;;;4.97;;
17937;SDS011;16051;53.024;8.630;2022-08-25T18:55:23;6.05;;;4.45;;
17937;SDS011;16051;53.024;8.630;2022-08-25T18:59:26;6.38;;;4.40;;
17937;SDS011;16051;53.024;8.630;2022-08-25T19:03:28;6.05;;;4.68;;
17937;SDS011;16051;53.024;8.630;2022-08-25T19:07:33;5.28;;;4.65;;
17937;SDS011;16051;53.024;8.630;2022-08-25T19:11:35;8.95;;;5.22;;
17937;SDS011;16051;53.024;8.630;2022-08-25T19:15:38;6.47;;;4.72;;
17937;SDS011;16051;53.024;8.630;2022-08-25T19:19:42;4.85;;;4.38;;
17937;SDS011;16051;53.024;8.630;2022-08-25T19:23:47;8.20;;;4.82;;
17937;SDS011;16051;53.024;8.630;2022-08-25T19:27:50;6.32;;;5.00;;
17937;SDS011;16051;53.024;8.630;2022-08-25T19:31:54;6.45;;;4.80;;
17937;SDS011;16051;53.024;8.630;2022-08-25T19:36:04;6.50;;;4.72;;
17937;SDS011;16051;53.024;8.630;2022-08-25T19:40:10;6.65;;;4.97;;
17937;SDS011;16051;53.024;8.630;2022-08-25T19:44:13;4.97;;;4.47;;
17937;SDS011;16051;53.024;8.630;2022-08-25T19:48:16;5.32;;;4.28;;
17937;SDS011;16051;53.024;8.630;2022-08-25T19:52:18;4.82;;;4.30;;
17937;SDS011;16051;53.024;8.630;2022-08-25T19:56:25;7.78;;;5.22;;
17937;SDS011;16051;53.024;8.630;2022-08-25T20:00:29;6.47;;;4.78;;
17937;SDS011;16051;53.024;8.630;2022-08-25T20:04:34;5.07;;;3.92;;
17937;SDS011;16051;53.024;8.630;2022-08-25T20:08:36;5.07;;;4.32;;
17937;SDS011;16051;53.024;8.630;2022-08-25T20:12:40;7.13;;;4.78;;
17937;SDS011;16051;53.024;8.630;2022-08-25T20:16:43;4.68;;;4.28;;
17937;SDS011;16051;53.024;8.630;2022-08-25T20:20:46;5.00;;;4.30;;
17937;SDS011;16051;53.024;8.630;2022-08-25T20:24:49;5.20;;;4.38;;
17937;SDS011;16051;53.024;8.630;2022-08-25T20:28:53;8.05;;;4.85;;
17937;SDS011;16051;53.024;8.630;2022-08-25T20:32:56;5.35;;;4.38;;
17937;SDS011;16051;53.024;8.630;2022-08-25T20:36:58;7.72;;;4.78;;
17937;SDS011;16051;53.024;8.630;2022-08-25T20:41:01;6.32;;;4.97;;
17937;SDS011;16051;53.024;8.630;2022-08-25T20:45:05;7.20;;;4.85;;
17937;SDS011;16051;53.024;8.630;2022-08-25T20:49:10;6.40;;;5.60;;
17937;SDS011;16051;53.024;8.630;2022-08-25T20:53:12;8.60;;;5.30;;
17937;SDS011;16051;53.024;8.630;2022-08-25T21:01:35;11.70;;;5.53;;
17937;SDS011;16051;53.024;8.630;2022-08-25T21:05:39;6.23;;;5.30;;
17937;SDS011;16051;53.024;8.630;2022-08-25T21:09:55;7.50;;;5.10;;
17937;SDS011;16051;53.024;8.630;2022-08-25T21:13:57;7.13;;;5.30;;
17937;SDS011;16051;53.024;8.630;2022-08-25T21:18:02;8.82;;;4.93;;
17937;SDS011;16051;53.024;8.630;2022-08-25T21:22:16;8.13;;;5.00;;
17937;SDS011;16051;53.024;8.630;2022-08-25T21:26:20;9.20;;;4.72;;
17937;SDS011;16051;53.024;8.630;2022-08-25T21:30:28;7.93;;;5.57;;
17937;SDS011;16051;53.024;8.630;2022-08-25T21:34:32;9.33;;;5.00;;
17937;SDS011;16051;53.024;8.630;2022-08-25T21:38:34;6.87;;;4.67;;
17937;SDS011;16051;53.024;8.630;2022-08-25T21:42:37;8.97;;;5.20;;
17937;SDS011;16051;53.024;8.630;2022-08-25T21:46:39;6.87;;;5.07;;
17937;SDS011;16051;53.024;8.630;2022-08-25T21:50:43;11.10;;;5.50;;
17937;SDS011;16051;53.024;8.630;2022-08-25T21:54:45;6.33;;;5.00;;
17937;SDS011;16051;53.024;8.630;2022-08-25T21:58:47;6.97;;;4.93;;
17937;SDS011;16051;53.024;8.630;2022-08-25T22:02:49;7.57;;;5.13;;
17937;SDS011;16051;53.024;8.630;2022-08-25T22:06:54;8.77;;;5.67;;
17937;SDS011;16051;53.024;8.630;2022-08-25T22:10:56;6.50;;;5.27;;
17937;SDS011;16051;53.024;8.630;2022-08-25T22:14:59;7.10;;;4.90;;
17937;SDS011;16051;53.024;8.630;2022-08-25T22:19:01;7.20;;;5.03;;
17937;SDS011;16051;53.024;8.630;2022-08-25T22:23:07;5.53;;;4.80;;
17937;SDS011;16051;53.024;8.630;2022-08-25T22:27:25;7.13;;;5.07;;
17937;SDS011;16051;53.024;8.630;2022-08-25T22:31:28;8.03;;;4.87;;
17937;SDS011;16051;53.024;8.630;2022-08-25T22:35:31;5.40;;;4.70;;
17937;SDS011;16051;53.024;8.630;2022-08-25T22:39:36;5.70;;;4.93;;
17937;SDS011;16051;53.024;8.630;2022-08-25T22:43:38;5.77;;;4.97;;
17937;SDS011;16051;53.024;8.630;2022-08-25T22:52:09;5.13;;;4.53;;
17937;SDS011;16051;53.024;8.630;2022-08-25T22:56:13;5.13;;;4.40;;
17937;SDS011;16051;53.024;8.630;2022-08-25T23:00:18;8.63;;;5.00;;
17937;SDS011;16051;53.024;8.630;2022-08-25T23:04:34;7.27;;;5.80;;
17937;SDS011;16051;53.024;8.630;2022-08-25T23:08:50;8.70;;;5.77;;
17937;SDS011;16051;53.024;8.630;2022-08-25T23:12:55;9.50;;;5.60;;
17937;SDS011;16051;53.024;8.630;2022-08-25T23:16:57;7.20;;;5.37;;
17937;SDS011;16051;53.024;8.630;2022-08-25T23:20:59;6.20;;;5.60;;
17937;SDS011;16051;53.024;8.630;2022-08-25T23:25:18;5.47;;;4.97;;
17937;SDS011;16051;53.024;8.630;2022-08-25T23:29:23;7.47;;;5.50;;
17937;SDS011;16051;53.024;8.630;2022-08-25T23:33:26;6.23;;;5.63;;
17937;SDS011;16051;53.024;8.630;2022-08-25T23:37:28;8.47;;;5.40;;
17937;SDS011;16051;53.024;8.630;2022-08-25T23:41:38;6.17;;;5.40;;
17937;SDS011;16051;53.024;8.630;2022-08-25T23:45:42;9.07;;;5.97;;
17937;SDS011;16051;53.024;8.630;2022-08-25T23:49:44;7.53;;;5.83;;
17937;SDS011;16051;53.024;8.630;2022-08-25T23:53:48;7.50;;;6.07;;
17937;SDS011;16051;53.024;8.630;2022-08-25T23:57:53;7.60;;;6.07;;
